createdAt,value
2022-11-14T00:00:27.964Z,14.70
2022-11-14T00:02:55.955Z,15.40
2022-11-14T00:05:26.577Z,15.68
2022-11-14T00:07:54.322Z,13.60
2022-11-14T00:10:22.444Z,14.52
2022-11-14T00:12:51.219Z,14.15
2022-11-14T00:15:20.472Z,14.95
2022-11-14T00:17:48.093Z,14.68
2022-11-14T00:20:16.292Z,14.60
2022-11-14T00:22:44.106Z,12.88
2022-11-14T00:25:11.982Z,14.10
2022-11-14T00:27:39.541Z,14.40
2022-11-14T00:30:08.467Z,13.57
2022-11-14T00:32:37.378Z,14.70
2022-11-14T00:35:05.276Z,14.80
2022-11-14T00:37:32.836Z,14.40
2022-11-14T00:40:00.614Z,14.07
2022-11-14T00:42:28.236Z,15.35
2022-11-14T00:44:55.845Z,14.52
2022-11-14T00:47:23.491Z,13.07
2022-11-14T00:49:54.917Z,14.48
2022-11-14T00:52:22.502Z,14.15
2022-11-14T00:54:50.101Z,13.85
2022-11-14T00:57:17.743Z,12.63
2022-11-14T00:59:50.408Z,14.02
2022-11-14T01:02:18.571Z,13.38
2022-11-14T01:04:46.254Z,13.77
2022-11-14T01:07:15.293Z,13.55
2022-11-14T01:09:45.749Z,13.02
2022-11-14T01:12:13.428Z,12.80
2022-11-14T01:14:41.379Z,12.65
2022-11-14T01:17:09.200Z,12.93
2022-11-14T01:19:36.798Z,11.93
2022-11-14T01:22:06.447Z,11.90
2022-11-14T01:24:35.954Z,12.05
2022-11-14T01:27:03.565Z,11.98
2022-11-14T01:29:31.508Z,13.15
2022-11-14T01:31:59.143Z,13.30
2022-11-14T01:34:26.807Z,12.13
2022-11-14T01:36:54.486Z,12.15
2022-11-14T01:39:22.455Z,12.57
2022-11-14T01:41:51.593Z,13.38
2022-11-14T01:44:42.368Z,11.85
2022-11-14T01:47:15.362Z,12.57
2022-11-14T01:49:47.213Z,12.52
2022-11-14T01:52:17.217Z,11.33
2022-11-14T01:54:49.430Z,13.07
2022-11-14T01:57:21.348Z,13.50
2022-11-14T01:59:52.821Z,11.65
2022-11-14T02:02:22.621Z,11.32
2022-11-14T02:04:56.500Z,11.65
2022-11-14T02:07:26.818Z,11.77
2022-11-14T02:09:55.638Z,11.85
2022-11-14T02:12:26.573Z,11.10
2022-11-14T02:14:59.780Z,11.95
2022-11-14T02:17:31.251Z,12.60
2022-11-14T02:20:08.275Z,10.88
2022-11-14T02:22:36.060Z,11.80
2022-11-14T02:25:04.032Z,12.38
2022-11-14T02:27:34.038Z,11.95
2022-11-14T02:30:08.227Z,12.32
2022-11-14T02:33:10.171Z,11.15
2022-11-14T02:35:25.143Z,12.50
2022-11-14T02:37:54.486Z,11.35
2022-11-14T02:40:22.152Z,11.73
2022-11-14T02:42:49.950Z,10.85
2022-11-14T02:45:20.887Z,10.95
2022-11-14T02:47:49.761Z,11.48
2022-11-14T02:50:18.144Z,10.80
2022-11-14T02:52:47.301Z,10.90
2022-11-14T02:55:15.320Z,11.43
2022-11-14T02:57:43.053Z,11.85
2022-11-14T03:00:14.932Z,11.40
2022-11-14T03:02:43.253Z,11.05
2022-11-14T03:05:10.952Z,11.05
2022-11-14T03:07:38.933Z,11.23
2022-11-14T03:10:14.958Z,11.43
2022-11-14T03:12:42.757Z,11.35
2022-11-14T03:15:11.406Z,11.20
2022-11-14T03:17:39.257Z,10.68
2022-11-14T03:20:08.290Z,10.50
2022-11-14T05:47:58.708Z,11.23
2022-11-14T05:50:26.467Z,12.07
2022-11-14T05:52:57.495Z,11.48
2022-11-14T05:55:26.592Z,12.48
2022-11-14T05:57:54.903Z,12.15
2022-11-14T06:00:26.024Z,12.35
2022-11-14T06:03:06.403Z,12.27
2022-11-14T06:05:37.311Z,11.55
2022-11-14T06:08:06.233Z,11.13
2022-11-14T06:10:39.379Z,14.02
2022-11-14T06:13:07.022Z,12.15
2022-11-14T06:15:35.764Z,12.88
2022-11-14T06:18:04.932Z,10.73
2022-11-14T06:20:32.498Z,11.95
2022-11-14T06:23:00.037Z,10.25
2022-11-14T06:25:27.588Z,10.50
2022-11-14T06:27:55.181Z,10.75
2022-11-14T06:30:35.848Z,10.40
2022-11-14T06:33:12.986Z,11.15
2022-11-14T06:38:58.486Z,11.65
2022-11-14T06:41:56.845Z,10.95
2022-11-14T06:44:35.792Z,10.27
2022-11-14T06:47:06.770Z,10.98
2022-11-14T06:49:40.880Z,11.35
2022-11-14T06:52:17.389Z,10.80
2022-11-14T06:55:01.394Z,12.07
2022-11-14T06:57:32.257Z,11.80
2022-11-14T07:00:09.574Z,12.07
2022-11-14T07:02:41.909Z,12.30
2022-11-14T07:05:17.580Z,11.55
2022-11-14T07:07:54.133Z,11.27
2022-11-14T07:10:24.531Z,11.70
2022-11-14T07:13:00.457Z,11.45
2022-11-14T07:15:33.059Z,10.07
2022-11-14T07:21:08.686Z,11.27
2022-11-14T07:23:46.210Z,11.38
2022-11-14T07:26:18.475Z,11.90
2022-11-14T07:28:52.839Z,12.20
2022-11-14T07:31:30.592Z,11.55
2022-11-14T07:34:01.194Z,12.65
2022-11-14T07:36:37.371Z,11.68
2022-11-14T07:39:11.869Z,12.73
2022-11-14T07:41:43.968Z,12.70
2022-11-14T07:44:15.169Z,12.90
2022-11-14T07:46:50.962Z,11.98
2022-11-14T07:49:24.484Z,12.88
2022-11-14T07:52:01.648Z,13.07
2022-11-14T07:54:34.200Z,13.35
2022-11-14T07:57:07.564Z,14.07
2022-11-14T07:59:39.590Z,13.30
2022-11-14T08:02:11.942Z,12.38
2022-11-14T08:04:48.139Z,12.45
2022-11-14T08:07:34.945Z,14.40
2022-11-14T08:10:05.903Z,13.13
2022-11-14T08:12:42.491Z,12.32
2022-11-14T08:15:16.752Z,14.05
2022-11-14T08:17:52.104Z,13.65
2022-11-14T08:20:28.031Z,13.15
2022-11-14T08:23:15.696Z,14.50
2022-11-14T08:25:53.992Z,14.70
2022-11-14T08:28:29.176Z,14.13
2022-11-14T08:33:57.381Z,13.52
2022-11-14T08:36:27.823Z,14.52
2022-11-14T08:39:10.365Z,14.20
2022-11-14T08:41:43.953Z,14.23
2022-11-14T08:44:15.987Z,12.57
2022-11-14T08:46:47.825Z,13.82
2022-11-14T08:49:20.981Z,13.07
2022-11-14T08:51:50.123Z,12.73
2022-11-14T08:54:25.103Z,12.13
2022-11-14T08:56:56.363Z,12.32
2022-11-14T08:59:31.433Z,11.50
2022-11-14T09:02:03.380Z,10.75
2022-11-14T09:04:35.113Z,12.75
2022-11-14T09:07:04.434Z,12.90
2022-11-14T09:09:37.598Z,11.10
2022-11-14T09:12:09.247Z,11.35
2022-11-14T09:14:39.724Z,13.00
2022-11-14T09:17:09.222Z,11.88
2022-11-14T09:19:43.198Z,12.13
2022-11-14T09:22:10.826Z,11.40
2022-11-14T09:24:39.743Z,11.65
2022-11-14T09:27:07.348Z,11.23
2022-11-14T09:29:35.006Z,11.57
2022-11-14T09:32:02.618Z,12.20
2022-11-14T09:34:30.365Z,12.30
2022-11-14T09:36:58.060Z,11.02
2022-11-14T09:39:25.830Z,11.15
2022-11-14T09:42:07.214Z,10.13
2022-11-14T09:44:57.621Z,10.70
2022-11-14T09:47:30.512Z,11.32
2022-11-14T09:50:06.899Z,10.15
2022-11-14T09:52:38.166Z,10.65
2022-11-14T09:55:13.632Z,10.38
2022-11-14T09:57:45.962Z,9.45
2022-11-14T10:00:16.161Z,9.82
2022-11-14T10:02:56.036Z,9.60
2022-11-14T10:05:55.667Z,9.38
2022-11-14T10:08:45.775Z,9.95
2022-11-14T10:11:19.546Z,9.73
2022-11-14T10:14:10.080Z,9.05
2022-11-14T10:16:48.819Z,8.63
2022-11-14T10:19:25.140Z,8.48
2022-11-14T10:22:07.115Z,9.35
2022-11-14T10:25:05.856Z,10.38
2022-11-14T10:27:39.780Z,8.57
2022-11-14T10:30:16.270Z,9.32
2022-11-14T10:33:11.184Z,8.40
2022-11-14T10:35:43.724Z,8.10
2022-11-14T10:40:46.532Z,9.75
2022-11-14T10:43:28.551Z,9.40
2022-11-14T10:46:04.461Z,9.73
2022-11-14T10:48:36.893Z,10.30
2022-11-14T10:51:10.023Z,11.15
2022-11-14T10:53:52.182Z,9.95
2022-11-14T10:56:20.958Z,9.93
2022-11-14T10:58:50.227Z,9.43
2022-11-14T11:01:38.964Z,8.65
2022-11-14T11:04:15.829Z,10.18
2022-11-14T11:06:44.636Z,8.90
2022-11-14T11:09:33.782Z,8.65
2022-11-14T11:12:05.310Z,8.85
2022-11-14T11:14:34.543Z,8.90
2022-11-14T11:17:23.250Z,8.05
2022-11-14T11:19:52.092Z,8.90
2022-11-14T11:22:29.835Z,8.63
2022-11-14T11:24:59.205Z,8.82
2022-11-14T11:27:29.704Z,8.10
2022-11-14T11:30:10.813Z,9.02
2022-11-14T11:32:41.561Z,8.70
2022-11-14T11:35:16.691Z,7.80
2022-11-14T11:37:59.472Z,9.48
2022-11-14T11:40:31.250Z,9.48
2022-11-14T11:45:56.716Z,8.55
2022-11-14T11:48:39.272Z,8.70
2022-11-14T11:53:43.404Z,7.95
2022-11-14T11:56:16.976Z,8.48
2022-11-14T11:58:50.978Z,7.82
2022-11-14T12:01:21.407Z,7.93
2022-11-14T12:03:54.442Z,7.90
2022-11-14T12:06:26.034Z,7.45
2022-11-14T12:09:07.674Z,6.93
2022-11-14T12:11:43.156Z,7.35
2022-11-14T12:14:35.193Z,7.05
2022-11-14T12:17:40.315Z,6.68
2022-11-14T12:20:49.937Z,6.18
2022-11-14T12:23:50.395Z,6.32
2022-11-14T12:26:48.699Z,6.32
2022-11-14T12:29:45.348Z,5.60
2022-11-14T12:32:20.484Z,5.93
2022-11-14T12:34:50.975Z,6.25
2022-11-14T12:37:25.342Z,6.50
2022-11-14T12:39:59.215Z,5.88
2022-11-14T12:42:28.034Z,5.85
2022-11-14T12:44:56.624Z,6.90
2022-11-14T12:47:26.242Z,6.15
2022-11-14T12:50:35.317Z,6.43
2022-11-14T12:53:05.303Z,5.63
2022-11-14T12:55:57.190Z,6.35
2022-11-14T12:58:38.178Z,6.40
2022-11-14T13:01:21.698Z,6.32
2022-11-14T13:04:03.245Z,6.55
2022-11-14T13:06:43.976Z,6.25
2022-11-14T13:09:34.152Z,6.10
2022-11-14T13:12:38.691Z,6.00
2022-11-14T13:15:47.435Z,6.13
2022-11-14T13:18:40.158Z,4.95
2022-11-14T13:21:38.660Z,4.95
2022-11-14T13:24:11.217Z,4.75
2022-11-14T13:26:55.085Z,5.07
2022-11-14T13:30:00.244Z,4.75
2022-11-14T13:33:05.142Z,4.78
2022-11-14T13:35:59.529Z,4.28
2022-11-14T13:39:03.363Z,3.88
2022-11-14T13:42:02.753Z,4.32
2022-11-14T13:45:21.351Z,5.10
2022-11-14T13:48:13.971Z,4.40
2022-11-14T13:50:43.222Z,4.25
2022-11-14T13:53:16.795Z,4.50
2022-11-14T13:55:57.327Z,3.72
2022-11-14T13:58:41.053Z,3.33
2022-11-14T14:01:22.364Z,2.92
2022-11-14T14:04:08.901Z,2.95
2022-11-14T14:06:49.421Z,2.60
2022-11-14T14:09:26.445Z,2.13
2022-11-14T14:12:22.472Z,2.80
2022-11-14T14:15:10.203Z,1.90
2022-11-14T14:17:51.128Z,2.38
2022-11-14T14:20:31.551Z,2.35
2022-11-14T14:23:09.385Z,2.22
2022-11-14T14:25:46.969Z,2.28
2022-11-14T14:28:26.008Z,1.80
2022-11-14T14:31:11.493Z,2.08
2022-11-14T14:33:43.884Z,1.95
2022-11-14T14:36:21.044Z,2.75
2022-11-14T14:38:49.703Z,2.08
2022-11-14T14:41:21.163Z,2.30
2022-11-14T14:43:56.162Z,1.77
2022-11-14T14:46:30.776Z,2.05
2022-11-14T14:49:01.076Z,1.77
2022-11-14T14:51:34.373Z,2.08
2022-11-14T14:54:02.702Z,1.98
2022-11-14T14:56:30.583Z,1.75
2022-11-14T14:58:58.409Z,1.92
2022-11-14T15:01:33.921Z,1.88
2022-11-14T15:04:05.085Z,1.35
2022-11-14T15:06:35.960Z,1.65
2022-11-14T15:09:09.622Z,1.30
2022-11-14T15:11:40.794Z,1.13
2022-11-14T15:14:14.342Z,1.70
2022-11-14T15:16:50.132Z,2.60
2022-11-14T15:19:21.416Z,3.42
2022-11-14T15:24:27.830Z,2.70
2022-11-14T15:30:21.571Z,2.00
2022-11-14T15:36:14.733Z,2.20
2022-11-14T15:39:11.819Z,2.45
2022-11-14T15:44:42.346Z,2.42
2022-11-14T15:47:14.572Z,2.80
2022-11-14T15:50:02.428Z,3.03
2022-11-14T15:52:35.049Z,2.45
2022-11-14T15:55:03.681Z,2.55
2022-11-14T15:57:32.987Z,3.03
2022-11-14T16:00:00.613Z,2.50
2022-11-14T16:02:31.943Z,2.35
2022-11-14T16:05:02.027Z,2.30
2022-11-14T16:07:29.679Z,1.85
2022-11-14T16:09:57.294Z,1.85
2022-11-14T16:12:25.077Z,1.50
2022-11-14T16:14:52.679Z,1.58
2022-11-14T16:17:20.385Z,1.20
2022-11-14T16:19:47.993Z,1.83
2022-11-14T16:22:19.110Z,2.08
2022-11-14T16:24:46.722Z,1.45
2022-11-14T16:27:15.378Z,1.55
2022-11-14T16:29:42.976Z,1.88
2022-11-14T16:32:11.546Z,1.83
2022-11-14T16:34:39.110Z,1.73
2022-11-14T16:37:06.767Z,2.00
2022-11-14T16:39:35.673Z,1.40
2022-11-14T16:42:03.668Z,1.48
2022-11-14T16:44:35.791Z,1.38
2022-11-14T16:47:07.980Z,1.30
2022-11-14T16:49:35.577Z,1.13
2022-11-14T16:52:07.065Z,1.33
2022-11-14T16:54:36.088Z,1.20
2022-11-14T16:57:03.656Z,1.00
2022-11-14T16:59:32.053Z,1.02
2022-11-14T17:01:59.703Z,1.30
2022-11-14T17:04:27.319Z,0.90
2022-11-14T17:06:54.939Z,1.33
2022-11-14T17:09:22.641Z,1.63
2022-11-14T17:11:51.594Z,1.65
2022-11-14T17:14:19.311Z,1.30
2022-11-14T17:16:47.299Z,1.30
2022-11-14T17:19:14.918Z,1.42
2022-11-14T17:21:42.508Z,1.38
2022-11-14T17:24:10.340Z,1.65
2022-11-14T17:26:38.009Z,1.27
2022-11-14T17:29:07.782Z,1.75
2022-11-14T17:31:38.433Z,1.80
2022-11-14T17:34:10.246Z,1.80
2022-11-14T17:36:37.885Z,2.38
2022-11-14T17:39:05.555Z,2.25
2022-11-14T17:41:33.590Z,2.63
2022-11-14T17:44:02.608Z,2.50
2022-11-14T17:46:31.942Z,2.47
2022-11-14T17:49:00.060Z,2.90
2022-11-14T17:51:27.791Z,2.83
2022-11-14T17:53:55.692Z,3.08
2022-11-14T17:56:25.135Z,3.28
2022-11-14T17:58:54.036Z,3.40
2022-11-14T18:01:24.425Z,4.65
2022-11-14T18:03:53.374Z,3.00
2022-11-14T18:06:22.493Z,3.05
2022-11-14T18:08:50.018Z,3.10
2022-11-14T18:11:20.334Z,3.58
2022-11-14T18:13:47.895Z,2.78
2022-11-14T18:16:17.896Z,3.17
2022-11-14T18:18:45.955Z,3.17
2022-11-14T18:21:16.734Z,2.80
2022-11-14T18:23:44.964Z,2.75
2022-11-14T18:26:13.723Z,2.75
2022-11-14T18:28:41.834Z,2.40
2022-11-14T18:31:11.201Z,2.63
2022-11-14T18:33:39.564Z,2.33
2022-11-14T18:36:11.105Z,2.83
2022-11-14T18:38:40.319Z,2.60
2022-11-14T18:41:09.522Z,4.78
2022-11-14T18:43:37.442Z,2.22
2022-11-14T18:46:07.248Z,2.28
2022-11-14T18:48:35.462Z,2.70
2022-11-14T18:51:03.703Z,2.42
2022-11-14T18:53:32.626Z,2.45
2022-11-14T18:56:04.626Z,2.88
2022-11-14T18:58:32.445Z,2.25
2022-11-14T19:01:00.200Z,2.78
2022-11-14T19:03:28.743Z,2.58
2022-11-14T19:05:56.675Z,3.13
2022-11-14T19:08:24.298Z,3.08
2022-11-14T19:10:51.872Z,2.95
2022-11-14T19:13:24.966Z,2.95
2022-11-14T19:15:52.574Z,3.33
2022-11-14T19:18:20.186Z,3.38
2022-11-14T19:20:57.166Z,2.60
2022-11-14T19:23:28.401Z,2.97
2022-11-14T19:25:59.987Z,2.47
2022-11-14T19:28:30.231Z,3.17
2022-11-14T19:31:01.962Z,2.45
2022-11-14T19:33:29.911Z,2.80
2022-11-14T19:35:57.909Z,2.95
2022-11-14T19:38:26.052Z,2.85
2022-11-14T19:40:53.686Z,2.63
2022-11-14T19:43:22.619Z,2.50
2022-11-14T19:45:51.625Z,2.58
2022-11-14T19:48:19.239Z,2.72
2022-11-14T19:50:46.854Z,2.50
2022-11-14T19:53:15.330Z,2.80
2022-11-14T19:55:42.955Z,2.80
2022-11-14T19:58:10.640Z,2.90
2022-11-14T20:00:38.252Z,3.33
2022-11-14T20:03:07.124Z,3.00
2022-11-14T20:05:34.703Z,3.00
2022-11-14T20:08:02.249Z,3.08
2022-11-14T20:10:29.776Z,2.92
2022-11-14T20:12:57.381Z,2.97
2022-11-14T20:15:26.065Z,3.63
2022-11-14T20:17:53.689Z,3.40
2022-11-14T20:20:24.073Z,3.75
2022-11-14T20:22:51.771Z,3.53
2022-11-14T20:25:19.310Z,3.17
2022-11-14T20:27:46.980Z,2.97
2022-11-14T20:30:14.798Z,3.22
2022-11-14T20:32:42.331Z,3.08
2022-11-14T20:35:09.941Z,3.13
2022-11-14T20:37:38.903Z,3.30
2022-11-14T20:40:07.542Z,3.17
2022-11-14T20:42:35.149Z,3.88
2022-11-14T20:45:02.708Z,4.00
2022-11-14T20:47:30.351Z,3.75
2022-11-14T20:49:57.892Z,3.75
2022-11-14T20:52:25.417Z,3.70
2022-11-14T20:54:54.276Z,5.78
2022-11-14T20:57:21.856Z,3.10
2022-11-14T20:59:49.468Z,3.30
2022-11-14T21:02:17.249Z,3.40
2022-11-14T21:04:44.807Z,2.90
2022-11-14T21:07:12.455Z,3.03
2022-11-14T21:09:40.089Z,2.80
2022-11-14T21:12:08.979Z,3.05
2022-11-14T21:14:36.583Z,2.88
2022-11-14T21:17:04.112Z,4.28
2022-11-14T21:19:31.649Z,4.10
2022-11-14T21:21:59.157Z,4.38
2022-11-14T21:24:27.468Z,4.30
2022-11-14T21:26:56.719Z,3.85
2022-11-14T21:29:27.938Z,2.53
2022-11-14T21:34:55.797Z,2.42
2022-11-14T21:37:25.038Z,2.53
2022-11-14T21:39:54.056Z,2.40
2022-11-14T21:42:22.874Z,2.78
2022-11-14T21:44:53.323Z,2.88
2022-11-14T21:47:24.860Z,2.63
2022-11-14T21:50:00.875Z,2.78
2022-11-14T21:52:30.470Z,2.63
2022-11-14T21:54:59.407Z,2.95
2022-11-14T21:57:28.216Z,3.05
2022-11-14T22:00:01.277Z,3.03
2022-11-14T22:02:47.037Z,3.15
2022-11-14T22:05:15.953Z,2.97
2022-11-14T22:07:44.824Z,2.90
2022-11-14T22:10:13.557Z,3.60
2022-11-14T22:12:42.275Z,3.15
2022-11-14T22:15:13.203Z,3.50
2022-11-14T22:17:43.259Z,3.45
2022-11-14T22:20:12.887Z,3.50
2022-11-14T22:22:41.439Z,3.20
2022-11-14T22:25:10.945Z,3.58
2022-11-14T22:27:42.313Z,3.28
2022-11-14T22:30:15.980Z,3.20
2022-11-14T22:32:44.952Z,3.03
2022-11-14T22:35:14.227Z,3.30
2022-11-14T22:37:42.950Z,2.75
2022-11-14T22:40:16.281Z,3.10
2022-11-14T22:42:45.109Z,2.70
2022-11-14T22:45:16.889Z,2.78
2022-11-14T22:47:45.580Z,3.40
2022-11-14T22:50:16.233Z,2.97
2022-11-14T22:52:44.541Z,2.70
2022-11-14T22:55:17.849Z,3.22
2022-11-14T22:57:46.873Z,3.05
2022-11-14T23:00:19.090Z,3.00
2022-11-14T23:02:50.357Z,2.83
2022-11-14T23:05:18.902Z,3.08
2022-11-14T23:07:47.566Z,2.47
2022-11-14T23:10:16.265Z,3.00
2022-11-14T23:12:49.475Z,3.03
2022-11-14T23:15:19.829Z,2.83
2022-11-14T23:17:48.955Z,2.67
2022-11-14T23:20:18.050Z,2.70
2022-11-14T23:22:47.026Z,2.90
2022-11-14T23:25:15.604Z,3.95
2022-11-14T23:27:44.902Z,2.63
2022-11-14T23:30:14.280Z,2.67
2022-11-14T23:32:44.488Z,2.55
2022-11-14T23:35:13.489Z,2.22
2022-11-14T23:37:42.570Z,2.40
2022-11-14T23:40:12.477Z,2.95
2022-11-14T23:42:43.966Z,2.85
2022-11-14T23:45:12.736Z,2.20
2022-11-14T23:47:41.407Z,2.30
2022-11-14T23:50:15.162Z,3.10
2022-11-14T23:52:44.289Z,2.92
2022-11-14T23:55:12.970Z,3.50
2022-11-14T23:57:41.521Z,3.20
